Latest Weather Observations for Alice Springs Airport

IDD60801

Issued at 11:31 pm CST Wednesday 7 December 2016 (issued every 30 minutes, with the page automatically refreshed every 10 minutes)

About weather observations | Map of weather stations | Latest weather observations for NT | Other Formats
Station Details ID: 015590 Name: ALICE SPRINGS AIRPORT Lat: -23.80 Lon: 133.89 Height: 546.0 m
Data from the previous 72 hours. | See also: Recent months at Alice Springs Airport
Date/Time
CST
Temp
°C
App
Temp
°C
Dew
Point
°C
Rel
Hum
%
Delta-T
°C
Wind Press
QNH
hPa
Press
MSL
hPa
Rain since
9am
mm
Dir  Spd
km/h
Gust
km/h
Spd
kts
Gust
kts
07/11:00pm 25.8 26.6 19.9 70 3.9 NE 15 19 8 10 1013.2 1009.4 0.2
07/10:30pm 25.6 27.2 20.8 75 3.2 NE 13 15 7 8 1013.6 1009.8 0.2
07/10:00pm 25.5 28.8 21.4 78 2.8 NNE 6 9 3 5 1013.5 1009.7 0.2
07/09:30pm 25.8 28.8 21.2 76 3.1 SSW 7 11 4 6 1013.8 1010.0 0.2
07/09:00pm 26.4 29.1 20.7 71 3.8 WSW 7 9 4 5 1013.5 1009.7 0.2
07/08:30pm 26.9 29.4 19.8 65 4.7 SE 6 9 3 5 1013.1 1009.3 0.2
07/08:00pm 26.9 29.2 20.6 68 4.2 ESE 9 11 5 6 1012.9 1009.0 0.2
07/07:30pm 27.2 29.7 20.3 66 4.6 ESE 7 9 4 5 1013.0 1009.1 0.2
07/07:00pm 27.6 29.5 19.8 62 5.2 SE 9 15 5 8 1012.8 1008.9 0.2
07/06:30pm 27.9 29.1 19.8 61 5.4 SE 13 19 7 10 1012.2 1008.3 0.2
07/06:00pm 28.5 29.4 19.3 57 6.1 SE 13 19 7 10 1012.6 1008.7 0.2
07/05:30pm 28.2 29.0 19.8 60 5.6 SE 15 20 8 11 1012.3 1008.4 0.2
07/05:00pm 28.8 28.9 19.1 55 6.4 S 17 26 9 14 1012.8 1008.9 0.2
07/04:30pm 29.0 29.3 18.8 54 6.7 SE 15 20 8 11 1012.4 1008.5 0.2
07/04:00pm 29.1 29.6 18.4 52 7.0 ESE 13 19 7 10 1012.6 1008.7 0.2
07/03:30pm 29.3 29.9 18.7 52 7.0 E 13 19 7 10 1012.8 1008.9 0.2
07/03:00pm 29.4 30.1 18.8 53 7.0 ESE 13 22 7 12 1013.3 1009.5 0.2
07/02:30pm 29.5 29.7 18.5 51 7.2 ESE 15 24 8 13 1013.3 1009.5 0.2
07/02:00pm 29.1 28.2 18.2 51 7.1 E 20 32 11 17 1013.8 1010.0 0.2
07/01:30pm 28.3 27.6 18.3 54 6.5 ESE 19 30 10 16 1014.5 1010.6 0.2
07/01:00pm 28.9 28.3 18.5 53 6.8 SE 19 28 10 15 1014.9 1011.1 0.2
07/12:30pm 27.7 27.6 18.7 58 5.9 SE 17 26 9 14 1015.6 1011.8 0.2
07/12:00pm 28.5 28.4 18.8 55 6.4 ESE 17 26 9 14 1016.2 1012.3 0.2
07/11:30am 27.4 26.8 18.5 58 5.8 ESE 19 28 10 15 1016.6 1012.8 0.2
07/11:00am 26.9 26.3 18.8 61 5.3 ESE 20 30 11 16 1016.7 1012.9 0.2
07/10:30am 26.2 25.7 19.0 64 4.7 ESE 20 30 11 16 1016.9 1013.1 0.2
07/10:00am 25.7 25.8 19.1 67 4.3 ESE 17 26 9 14 1017.0 1013.2 0.2
07/09:30am 24.9 24.5 18.9 69 3.9 E 19 26 10 14 1017.0 1013.2 0.0
07/09:00am 24.0 23.3 18.6 72 3.5 E 20 28 11 15 1017.0 1013.2 17.6
07/08:30am 23.2 21.6 19.2 78 2.6 ENE 26 35 14 19 1016.6 1012.8 17.6
07/08:00am 22.8 22.8 19.7 83 2.0 ENE 19 24 10 13 1016.7 1012.9 17.6
07/07:30am 22.0 22.5 20.0 88 1.3 ENE 17 22 9 12 1016.7 1012.9 17.6
07/07:00am 21.5 23.5 20.0 91 1.0 ENE 9 15 5 8 1016.5 1012.7 17.6
07/06:30am 21.2 22.9 20.1 93 0.7 ENE 11 15 6 8 1015.8 1012.0 17.6
07/06:00am 21.0 22.7 20.1 95 0.6 ENE 11 13 6 7 1015.5 1011.7 17.6
07/05:30am 21.0 23.3 19.9 93 0.7 E 7 9 4 5 1015.4 1011.6 17.6
07/05:00am 21.1 23.5 20.0 93 0.7 ENE 7 11 4 6 1015.2 1011.4 17.6
07/04:30am 21.3 23.6 19.8 91 1.0 ESE 7 11 4 6 1014.9 1011.1 17.6
07/04:00am 21.3 23.8 19.9 92 0.9 ESE 6 9 3 5 1014.9 1011.1 17.6
07/03:30am 21.4 23.0 19.9 91 1.0 SSW 11 13 6 7 1015.3 1011.5 17.6
07/03:00am 21.4 23.5 20.2 93 0.8 SSW 9 11 5 6 1015.1 1011.3 17.6
07/02:30am 21.5 23.4 19.8 90 1.1 SSW 9 9 5 5 1015.0 1011.2 17.6
07/02:00am 21.5 25.1 19.8 90 1.1 CALM 0 0 0 0 1014.8 1011.0 17.6
07/01:30am 21.4 25.1 19.9 91 1.0 CALM 0 0 0 0 1015.0 1011.2 17.6
07/01:00am 21.3 23.6 19.8 91 1.0 SSE 7 9 4 5 1015.3 1011.5 17.6
07/12:30am 21.4 23.3 19.7 90 1.1 SE 9 11 5 6 1015.8 1012.0 17.6
07/12:00am 21.3 22.9 19.9 92 0.9 ESE 11 15 6 8 1016.2 1012.3 17.6
 
Date/Time
CST
Temp
°C
App
Temp
°C
Dew
Point
°C
Rel
Hum
%
Delta-T
°C
Wind Press
QNH
hPa
Press
MSL
hPa
Rain since
9am
mm
Dir  Spd
km/h
Gust
km/h
Spd
kts
Gust
kts
06/11:46pm 21.3 22.5 19.9 92 0.9 E 13 17 7 9 1016.4 1012.5 17.6
06/11:30pm 21.5 23.2 20.1 92 0.9 ESE 11 15 6 8 1016.5 1012.7 17.6
06/11:26pm 21.5 23.2 20.1 92 0.9 ESE 11 15 6 8 1016.5 1012.7 17.6
06/11:00pm 21.8 23.2 20.3 91 1.0 ESE 13 17 7 9 1016.7 1012.9 17.6
06/10:30pm 21.9 23.2 20.2 90 1.1 SE 13 19 7 10 1016.6 1012.8 17.6
06/10:00pm 22.1 24.4 20.6 91 1.0 SE 9 13 5 7 1016.5 1012.7 17.6
06/09:30pm 22.2 23.7 20.5 90 1.1 SSE 13 20 7 11 1016.5 1012.7 17.6
06/09:00pm 22.2 23.3 20.5 90 1.1 SSW 15 20 8 11 1016.5 1012.7 17.6
06/08:45pm 22.1 23.3 20.7 92 0.9 SSW 15 19 8 10 1016.3 1012.4 17.6
06/08:30pm 22.1 24.2 20.9 93 0.8 SW 11 15 6 8 1016.2 1012.3 17.6
06/08:00pm 22.1 23.7 20.7 92 0.9 SSW 13 17 7 9 1015.8 1012.0 17.6
06/07:30pm 22.2 22.4 20.5 90 1.1 S 20 28 11 15 1015.5 1011.7 17.6
06/07:00pm 22.1 23.3 20.6 91 1.0 SE 15 22 8 12 1015.3 1011.5 17.6
06/06:30pm 22.3 21.8 20.8 91 1.0 SE 24 43 13 23 1014.8 1011.0 17.6
06/06:11pm 22.2 20.4 20.4 89 1.2 S 30 41 16 22 1013.4 1009.6 17.6
06/06:07pm 22.0 19.9 20.5 91 1.0 S 32 43 17 23 1013.3 1009.5 17.6
06/06:00pm 21.4 18.5 19.2 87 1.4 SSE 33 50 18 27 1013.3 1009.5 17.4
06/05:45pm 21.0 19.0 19.1 89 1.2 WSW 28 48 15 26 1014.1 1010.2 14.6
06/05:33pm 22.2 20.3 18.6 80 2.3 WNW 26 48 14 26 1014.1 1010.2 2.0
06/05:30pm 22.9 21.3 18.4 76 2.9 WNW 24 48 13 26 1014.2 1010.3 0.0
06/05:29pm 22.8 21.6 18.4 76 2.8 WNW 22 48 12 26 1014.1 1010.2 0.0
06/05:19pm 25.3 23.7 17.5 62 5.0 S 22 37 12 20 1013.6 1009.8 0.0
06/05:00pm 30.5 26.9 17.2 44 8.6 SSE 32 39 17 21 1011.8 1008.0 0.0
06/04:30pm 32.1 28.6 16.4 39 10.1 SSE 30 37 16 20 1012.3 1008.4 0.0
06/04:00pm 33.0 30.6 16.4 37 10.7 ESE 24 43 13 23 1012.7 1008.8 0.0
06/03:30pm 33.0 31.4 16.6 37 10.6 SE 20 30 11 16 1013.1 1009.3 0.0
06/03:00pm 32.5 31.1 16.9 39 10.1 SE 20 35 11 19 1013.4 1009.6 0.0
06/02:30pm 32.8 31.0 16.9 38 10.3 ESE 22 33 12 18 1013.7 1009.9 0.0
06/02:00pm 32.4 31.6 17.2 40 9.9 SE 17 30 9 16 1014.1 1010.2 0.0
06/01:30pm 31.8 31.2 17.5 42 9.3 SE 17 30 9 16 1014.5 1010.6 0.0
06/01:00pm 31.6 30.3 18.2 44 8.8 ESE 22 33 12 18 1015.1 1011.3 0.0
06/12:30pm 29.6 28.9 18.7 52 7.2 ESE 20 32 11 17 1015.6 1011.8 0.0
06/12:00pm 28.1 27.4 18.3 55 6.4 ESE 19 32 10 17 1016.0 1012.1 0.0
06/11:30am 28.0 27.8 18.5 56 6.2 SE 17 24 9 13 1016.3 1012.4 0.0
06/11:00am 27.6 27.1 18.6 58 5.9 SE 19 26 10 14 1016.5 1012.7 0.0
06/10:30am 26.9 27.7 19.0 62 5.2 SE 13 19 7 10 1016.9 1013.1 0.0
06/10:00am 26.3 26.4 19.1 64 4.7 SSE 17 26 9 14 1017.4 1013.6 0.0
06/09:30am 25.4 26.2 19.1 68 4.1 S 13 20 7 11 1017.9 1014.0 0.0
06/09:00am 25.9 26.9 19.4 67 4.3 SSW 13 19 7 10 1017.9 1014.0 0.2
06/08:30am 24.6 25.3 19.6 73 3.3 S 15 19 8 10 1018.3 1014.5 0.2
06/08:00am 24.5 25.3 19.8 75 3.1 S 15 19 8 10 1018.2 1014.4 0.2
06/07:30am 24.1 25.4 20.2 79 2.6 SSW 13 17 7 9 1017.7 1013.9 0.2
06/07:00am 23.2 24.6 20.3 84 1.9 SSW 13 17 7 9 1017.4 1013.6 0.2
06/06:56am 23.3 24.7 20.4 84 1.9 SSW 13 17 7 9 1017.3 1013.5 0.2
06/06:30am 22.7 24.6 20.6 88 1.4 S 11 15 6 8 1016.6 1012.8 0.2
06/06:28am 22.7 24.6 20.6 88 1.4 S 11 15 6 8 1016.7 1012.9 0.2
06/06:00am 22.3 24.5 20.5 89 1.2 S 9 11 5 6 1016.4 1012.5 0.2
06/05:37am 22.3 25.1 20.5 89 1.2 WSW 6 11 3 6 1016.1 1012.2 0.2
06/05:30am 21.9 25.1 20.5 92 0.9 NNE 4 7 2 4 1016.0 1012.1 0.2
06/05:00am 22.2 24.4 20.4 89 1.2 SSW 9 11 5 6 1015.4 1011.6 0.2
06/04:30am 22.4 25.0 20.4 88 1.3 SW 7 9 4 5 1014.7 1010.8 0.0
06/04:13am 22.5 24.7 20.4 88 1.4 WSW 9 11 5 6 1014.6 1010.7 0.0
06/04:00am 22.6 24.8 20.3 87 1.5 WSW 9 13 5 7 1014.5 1010.6 0.0
06/03:58am 22.6 24.8 20.3 87 1.5 WSW 9 13 5 7 1014.6 1010.7 0.0
06/03:30am 22.8 25.3 20.2 85 1.7 SSW 7 7 4 4 1014.4 1010.5 0.0
06/03:00am 23.1 25.5 20.1 83 2.0 SE 7 9 4 5 1014.1 1010.2 0.0
06/02:30am 23.2 25.3 20.2 83 2.0 SSE 9 9 5 5 1014.0 1010.1 0.0
06/02:00am 23.5 26.1 20.5 83 2.0 SSE 7 9 4 5 1014.1 1010.2 0.0
06/01:30am 23.6 26.3 20.6 83 2.0 SSE 7 7 4 4 1014.1 1010.2 0.0
06/01:00am 23.7 25.9 20.4 82 2.2 SSW 9 11 5 6 1014.4 1010.5 0.0
06/12:30am 24.0 25.5 20.5 81 2.3 S 13 15 7 8 1014.7 1010.8 0.0
06/12:00am 24.3 25.6 20.1 77 2.8 SSW 13 19 7 10 1015.0 1011.2 0.0
 
Date/Time
CST
Temp
°C
App
Temp
°C
Dew
Point
°C
Rel
Hum
%
Delta-T
°C
Wind Press
QNH
hPa
Press
MSL
hPa
Rain since
9am
mm
Dir  Spd
km/h
Gust
km/h
Spd
kts
Gust
kts
05/11:30pm 24.7 25.9 19.9 74 3.2 SSW 13 17 7 9 1015.2 1011.4 0.0
05/11:00pm 24.9 25.8 19.2 70 3.7 SSW 13 19 7 10 1015.2 1011.4 0.0
05/10:30pm 25.0 25.8 19.0 69 3.9 S 13 15 7 8 1014.9 1011.1 0.0
05/10:00pm 25.4 25.0 18.8 67 4.3 S 19 26 10 14 1014.6 1010.7 0.0
05/09:30pm 26.5 27.1 17.6 58 5.7 SSW 11 19 6 10 1014.2 1010.3 0.0
05/09:00pm 26.4 27.4 17.7 58 5.6 S 9 13 5 7 1013.1 1009.3 0.0
05/08:30pm 26.6 26.6 17.2 56 6.0 S 13 17 7 9 1013.0 1009.1 0.0
05/08:00pm 26.8 26.4 17.1 55 6.2 SSW 15 19 8 10 1012.5 1008.6 0.0
05/07:30pm 27.7 26.5 16.1 49 7.3 SW 17 26 9 14 1012.1 1008.2 0.0
05/07:00pm 28.0 26.4 16.5 49 7.3 WSW 20 28 11 15 1011.4 1007.6 0.0
05/06:30pm 28.4 25.6 16.3 47 7.7 WSW 26 33 14 18 1011.2 1007.3 0.0
05/06:00pm 29.4 25.4 16.8 46 8.1 WSW 33 41 18 22 1010.8 1006.9 0.0
05/05:47pm 29.6 27.2 16.4 45 8.4 W 24 43 13 23 1010.4 1006.5 0.0
05/05:30pm 34.6 30.4 9.6 21 14.7 N 22 30 12 16 1009.8 1006.0 0.0
05/05:00pm 34.7 29.4 9.8 22 14.7 NNW 28 35 15 19 1009.6 1005.7 0.0
05/04:30pm 35.3 28.8 8.0 18 15.7 N 32 41 17 22 1009.3 1005.4 0.0
05/04:05pm 35.9 30.6 11.1 22 15.0 N 30 48 16 26 1009.3 1005.4 0.0
05/04:00pm 35.8 29.8 10.9 22 15.0 N 33 48 18 26 1009.2 1005.3 0.0
05/03:56pm 36.2 30.9 11.1 22 15.2 N 30 48 16 26 1009.2 1005.3 0.0
05/03:30pm 35.8 30.9 12.4 24 14.4 N 30 43 16 23 1009.6 1005.7 0.0
05/03:00pm 34.1 32.6 15.3 32 12.0 NE 17 28 9 15 1010.2 1006.3 0.0
05/02:30pm 34.6 33.5 17.2 35 11.4 ENE 19 32 10 17 1010.9 1007.0 0.0
05/02:00pm 33.1 33.3 16.7 37 10.6 NE 11 26 6 14 1011.5 1007.7 0.0
05/01:30pm 31.9 32.3 18.1 43 9.1 N 13 20 7 11 1012.1 1008.2 0.0
05/01:00pm 32.5 33.1 16.9 39 10.1 N 9 17 5 9 1012.5 1008.6 0.0
05/12:30pm 31.2 32.0 17.3 43 9.0 N 9 19 5 10 1013.1 1009.3 0.0
05/12:00pm 29.5 29.8 18.0 50 7.5 NE 13 19 7 10 1013.7 1009.9 0.0
05/11:30am 28.4 30.2 18.3 54 6.6 WSW 6 13 3 7 1014.5 1010.6 0.0
05/11:00am 27.7 29.2 18.9 58 5.8 NE 9 17 5 9 1015.2 1011.4 0.0
05/10:30am 27.2 28.4 19.0 61 5.4 ENE 11 24 6 13 1015.6 1011.8 0.0
05/10:00am 26.5 27.6 18.9 63 5.0 ESE 11 20 6 11 1016.0 1012.1 0.0
05/09:30am 26.1 27.8 18.6 63 4.9 SE 7 13 4 7 1016.2 1012.3 0.0
05/09:24am 25.0 26.9 18.9 69 4.0 SE 7 13 4 7 1016.3 1012.4 0.0
05/09:00am 24.5 25.7 19.0 71 3.6 S 11 17 6 9 1016.2 1012.3 0.0
05/08:41am 23.6 24.5 19.3 77 2.8 SW 13 17 7 9 1016.3 1012.4 0.0
05/08:30am 23.5 24.5 19.4 78 2.7 SW 13 19 7 10 1016.3 1012.4 0.0
05/08:00am 22.9 23.8 19.2 79 2.4 SW 13 17 7 9 1016.6 1012.8 0.0
05/07:30am 22.5 23.1 19.4 82 2.0 SW 15 19 8 10 1016.2 1012.3 0.0
05/07:00am 22.4 22.1 19.2 82 2.1 S 19 26 10 14 1015.6 1011.8 0.0
05/06:30am 22.5 24.0 18.8 79 2.4 SW 9 13 5 7 1016.0 1012.1 0.0
05/06:00am 22.0 23.3 19.4 85 1.7 SSW 11 17 6 9 1015.3 1011.5 0.0
05/05:30am 21.8 23.7 19.7 88 1.4 SSW 9 13 5 7 1014.6 1010.7 0.0
05/05:00am 21.6 23.4 19.6 88 1.3 SSW 9 13 5 7 1014.2 1010.3 0.0
05/04:30am 21.6 24.5 19.8 89 1.2 ENE 4 9 2 5 1013.7 1009.9 0.0
05/04:00am 21.8 25.0 19.7 88 1.4 ESE 2 6 1 3 1013.2 1009.4 0.0
05/03:30am 21.9 23.6 19.4 86 1.6 SE 9 13 5 7 1013.0 1009.1 0.0
05/03:00am 22.1 23.0 19.2 83 1.9 ESE 13 17 7 9 1012.9 1009.0 0.0
05/02:30am 22.4 23.1 18.8 80 2.3 E 13 19 7 10 1013.1 1009.3 0.0
05/02:00am 22.7 23.4 18.8 78 2.5 E 13 17 7 9 1013.4 1009.6 0.0
05/01:30am 22.9 23.3 18.9 78 2.6 ESE 15 19 8 10 1013.7 1009.9 0.0
05/01:00am 22.7 24.2 19.0 79 2.4 S 9 11 5 6 1014.2 1010.3 0.0
05/12:30am 23.2 23.9 18.9 77 2.8 S 13 20 7 11 1014.3 1010.4 0.0
05/12:00am 23.6 24.8 19.0 75 3.0 SSW 11 20 6 11 1014.7 1010.8 0.0

Other Formats:

Comma delimited format used in spreadsheet applications
http://www.bom.gov.au/fwo/IDD60801/IDD60801.94326.axf

JavaScript Object Notation format (JSON) in row-major order
http://www.bom.gov.au/fwo/IDD60801/IDD60801.94326.json